Time;durP1;ratioP1;P1;durP2;ratioP2;P2;SDS_P1;SDS_P2;PMS_P1;PMS_P2;Temp;Humidity;BMP_temperature;BMP_pressure;BME280_temperature;BME280_humidity;BME280_pressure;Samples;Min_cycle;Max_cycle;Signal;HPM_P1;HPM_P2
2023/03/19 00:02:01;;;;;;;8.30;3.13;;;12.60;99.90;;;;;;5074207;28;20021;-75
2023/03/19 00:04:27;;;;;;;6.25;2.83;;;12.60;99.90;;;;;;5072681;28;20020;-75
2023/03/19 00:06:53;;;;;;;5.13;3.03;;;12.60;99.90;;;;;;5071909;28;20447;-75
2023/03/19 00:09:20;;;;;;;5.43;3.25;;;12.60;99.90;;;;;;5081371;28;20449;-75
2023/03/19 00:11:47;;;;;;;5.97;3.58;;;12.60;99.90;;;;;;5092355;28;20027;-75
2023/03/19 00:14:13;;;;;;;6.47;3.10;;;12.50;99.90;;;;;;5092852;28;20020;-77
2023/03/19 00:16:39;;;;;;;4.78;3.03;;;12.50;99.90;;;;;;5071957;28;20427;-77
2023/03/19 00:19:04;;;;;;;6.75;3.72;;;12.50;99.90;;;;;;5073339;28;20122;-75
2023/03/19 00:21:31;;;;;;;8.77;3.22;;;12.50;99.90;;;;;;5082847;28;20020;-82
2023/03/19 00:24:01;;;;;;;7.13;3.05;;;12.40;99.90;;;;;;5077605;28;20029;-75
2023/03/19 00:26:28;;;;;;;5.18;3.45;;;12.40;99.90;;;;;;5075095;28;20048;-75
2023/03/19 00:28:55;;;;;;;8.40;3.55;;;12.40;99.90;;;;;;5077236;28;20067;-76
2023/03/19 00:31:21;;;;;;;7.35;3.03;;;12.50;99.90;;;;;;5081761;28;20039;-74
2023/03/19 00:33:46;;;;;;;8.88;3.40;;;12.40;99.90;;;;;;5091086;28;20073;-74
2023/03/19 00:36:12;;;;;;;5.43;3.10;;;12.40;99.90;;;;;;5083185;28;20469;-73
2023/03/19 00:38:38;;;;;;;5.82;3.00;;;12.50;99.90;;;;;;5072881;28;20413;-74
2023/03/19 00:41:06;;;;;;;7.15;3.22;;;12.50;99.90;;;;;;5071789;28;20410;-74
2023/03/19 00:43:32;;;;;;;6.85;3.25;;;12.50;99.90;;;;;;5082183;28;20020;-80
2023/03/19 00:45:57;;;;;;;8.20;3.30;;;12.50;99.90;;;;;;5092052;28;20028;-74
2023/03/19 00:48:23;;;;;;;9.27;3.20;;;12.50;99.90;;;;;;5072601;28;20020;-74
2023/03/19 00:50:49;;;;;;;9.15;3.40;;;12.40;99.90;;;;;;5074482;28;20059;-75
2023/03/19 00:53:14;;;;;;;5.95;3.47;;;12.40;99.90;;;;;;5086550;28;20161;-75
2023/03/19 00:55:40;;;;;;;7.50;3.58;;;12.40;99.90;;;;;;5091845;28;20078;-76
2023/03/19 00:58:06;;;;;;;6.25;3.03;;;12.40;99.90;;;;;;5082486;28;20433;-75
2023/03/19 01:00:33;;;;;;;8.50;3.50;;;12.40;99.90;;;;;;5088094;28;20020;-80
2023/03/19 01:02:59;;;;;;;6.95;3.47;;;12.40;99.90;;;;;;5076898;28;20085;-75
2023/03/19 01:05:25;;;;;;;6.78;3.65;;;12.40;99.90;;;;;;5092706;28;20024;-75
2023/03/19 01:07:50;;;;;;;8.32;3.72;;;12.40;99.90;;;;;;5092334;28;20030;-76
2023/03/19 01:10:21;;;;;;;8.60;3.70;;;12.30;99.90;;;;;;5091795;28;20362;-78
2023/03/19 01:12:47;;;;;;;6.43;3.55;;;12.20;99.90;;;;;;5074332;28;20024;-75
2023/03/19 01:15:13;;;;;;;6.70;3.72;;;12.20;99.90;;;;;;5090952;28;20080;-75
2023/03/19 01:17:38;;;;;;;6.95;3.28;;;12.20;99.90;;;;;;5080287;28;20449;-75
2023/03/19 01:20:11;;;;;;;6.47;3.45;;;12.10;99.90;;;;;;5086599;28;20028;-75
2023/03/19 01:22:41;;;;;;;7.38;3.38;;;12.20;99.90;;;;;;5092414;28;20027;-74
2023/03/19 01:25:08;;;;;;;6.47;3.40;;;12.20;99.90;;;;;;5084282;28;20020;-74
2023/03/19 01:27:34;;;;;;;6.63;3.15;;;12.10;99.90;;;;;;5076491;28;20025;-77
2023/03/19 01:30:00;;;;;;;6.22;2.60;;;12.10;99.90;;;;;;5071449;28;20021;-74
2023/03/19 01:32:26;;;;;;;9.77;3.40;;;12.10;99.90;;;;;;5072489;28;20118;-74
2023/03/19 01:34:52;;;;;;;7.00;2.80;;;12.10;99.90;;;;;;5071991;28;20162;-76
2023/03/19 01:37:18;;;;;;;4.95;2.72;;;12.10;99.90;;;;;;5071118;28;20045;-75
2023/03/19 01:39:44;;;;;;;8.30;3.28;;;12.10;99.90;;;;;;5084182;28;20028;-76
2023/03/19 01:42:10;;;;;;;4.65;2.42;;;12.00;99.90;;;;;;5092778;28;20016;-75
2023/03/19 01:44:37;;;;;;;6.72;2.50;;;12.00;99.90;;;;;;5092095;28;20021;-76
2023/03/19 01:47:29;;;;;;;6.60;2.97;;;12.10;99.90;;;;;;5085739;28;20035;-74
2023/03/19 01:49:56;;;;;;;5.63;2.70;;;12.00;99.90;;;;;;5086052;28;20028;-74
2023/03/19 01:52:24;;;;;;;4.85;2.53;;;12.00;99.90;;;;;;5073450;28;20351;-74
2023/03/19 01:54:52;;;;;;;6.18;2.30;;;12.00;99.90;;;;;;5070419;28;20033;-74
2023/03/19 01:57:18;;;;;;;4.50;2.38;;;12.10;99.90;;;;;;5071945;28;20025;-74
2023/03/19 01:59:47;;;;;;;5.90;2.50;;;12.00;99.90;;;;;;5070416;28;20369;-73
2023/03/19 02:02:25;;;;;;;4.18;2.40;;;12.00;99.90;;;;;;5071006;28;20025;-73
2023/03/19 02:05:12;;;;;;;7.20;2.30;;;12.10;99.90;;;;;;5071690;28;20021;-73
2023/03/19 02:07:40;;;;;;;5.47;2.60;;;12.00;99.90;;;;;;5071250;28;20537;-74
2023/03/19 02:10:10;;;;;;;3.85;2.40;;;12.10;99.90;;;;;;5072153;28;20368;-74
2023/03/19 02:12:35;;;;;;;8.20;2.95;;;12.00;99.90;;;;;;5086910;28;20031;-74
2023/03/19 02:15:01;;;;;;;4.57;2.28;;;12.10;99.90;;;;;;5073075;28;20051;-76
2023/03/19 02:17:28;;;;;;;4.85;2.38;;;12.10;99.90;;;;;;5073919;28;20112;-77
2023/03/19 02:19:59;;;;;;;4.43;2.45;;;12.10;99.90;;;;;;5087503;28;20126;-75
2023/03/19 02:22:28;;;;;;;8.70;2.15;;;12.10;99.90;;;;;;5094858;28;20031;-74
2023/03/19 02:25:12;;;;;;;7.43;2.50;;;12.10;99.90;;;;;;5090322;28;20040;-74
2023/03/19 02:27:37;;;;;;;6.22;2.67;;;12.10;99.90;;;;;;5073131;28;20036;-74
2023/03/19 02:30:24;;;;;;;6.43;2.70;;;12.10;99.90;;;;;;5089598;28;20029;-73
2023/03/19 02:32:50;;;;;;;5.18;2.35;;;12.10;99.90;;;;;;5060490;28;20088;-74
2023/03/19 02:35:15;;;;;;;5.22;2.40;;;12.10;99.90;;;;;;5074171;28;20107;-75
2023/03/19 02:37:41;;;;;;;6.15;2.45;;;12.10;99.90;;;;;;5073577;28;20381;-75
2023/03/19 02:40:14;;;;;;;5.45;2.10;;;12.10;99.90;;;;;;5084056;28;20023;-75
2023/03/19 02:42:40;;;;;;;16.67;9.88;;;12.10;99.90;;;;;;5095971;28;20036;-78
2023/03/19 02:45:07;;;;;;;79.32;43.78;;;12.20;99.90;;;;;;5095453;28;20012;-76
2023/03/19 02:47:33;;;;;;;39.00;20.25;;;12.20;99.90;;;;;;5093116;28;20147;-81
2023/03/19 02:49:58;;;;;;;10.10;5.60;;;12.20;99.90;;;;;;5079654;28;20434;-75
2023/03/19 02:52:24;;;;;;;6.68;3.90;;;12.20;99.90;;;;;;5091607;28;20502;-74
2023/03/19 02:54:49;;;;;;;4.88;3.00;;;12.10;99.90;;;;;;5074070;28;20052;-73
2023/03/19 02:57:15;;;;;;;4.63;2.60;;;12.10;99.90;;;;;;5074825;28;20062;-74
2023/03/19 02:59:41;;;;;;;5.22;2.60;;;12.10;99.90;;;;;;5074890;28;20035;-75
2023/03/19 03:02:07;;;;;;;5.28;2.42;;;12.10;99.90;;;;;;5075054;28;20024;-74
2023/03/19 03:04:35;;;;;;;6.10;2.72;;;12.10;99.90;;;;;;5092479;28;20102;-77
2023/03/19 03:07:02;;;;;;;7.43;2.58;;;12.10;99.90;;;;;;5095003;28;20024;-74
2023/03/19 03:09:27;;;;;;;5.30;2.50;;;12.10;99.90;;;;;;5084219;28;20137;-75
2023/03/19 03:11:53;;;;;;;3.67;2.33;;;12.10;99.90;;;;;;5074393;28;20046;-74
2023/03/19 03:14:18;;;;;;;6.57;2.47;;;12.10;99.90;;;;;;5075105;28;20063;-74
2023/03/19 03:16:44;;;;;;;4.97;2.20;;;12.10;99.90;;;;;;5072523;28;20089;-76
2023/03/19 03:19:10;;;;;;;6.13;2.58;;;12.10;99.90;;;;;;5074795;28;20100;-74
2023/03/19 03:21:36;;;;;;;4.68;2.28;;;12.10;99.90;;;;;;5072153;28;20024;-74
2023/03/19 03:24:02;;;;;;;4.35;2.50;;;12.10;99.90;;;;;;5072971;28;20025;-78
2023/03/19 03:26:28;;;;;;;4.07;2.20;;;12.10;99.90;;;;;;5092797;28;20028;-75
2023/03/19 03:28:53;;;;;;;5.32;2.38;;;12.10;99.90;;;;;;5093844;28;20073;-76
2023/03/19 03:31:20;;;;;;;6.05;2.55;;;12.10;99.90;;;;;;5094117;28;20027;-76
2023/03/19 03:33:45;;;;;;;5.20;2.38;;;12.10;99.90;;;;;;5094382;28;20027;-76
2023/03/19 03:36:12;;;;;;;4.80;2.70;;;12.10;99.90;;;;;;5087859;28;20115;-75
2023/03/19 03:38:37;;;;;;;6.10;2.83;;;12.10;99.90;;;;;;5093167;28;20071;-76
2023/03/19 03:41:03;;;;;;;4.97;2.42;;;12.10;99.90;;;;;;5094714;28;20048;-75
2023/03/19 03:43:29;;;;;;;5.10;2.22;;;12.10;99.90;;;;;;5096090;28;20425;-75
2023/03/19 03:45:55;;;;;;;6.00;2.40;;;12.10;99.90;;;;;;5094623;28;20016;-76
2023/03/19 03:48:20;;;;;;;5.68;2.38;;;12.10;99.90;;;;;;5080811;28;20023;-75
2023/03/19 03:50:46;;;;;;;5.38;2.50;;;12.10;99.90;;;;;;5082889;28;20020;-76
2023/03/19 03:53:12;;;;;;;3.38;2.30;;;12.10;99.90;;;;;;5088168;28;20487;-75
2023/03/19 03:55:38;;;;;;;4.95;2.58;;;12.10;99.90;;;;;;5094305;28;20027;-77
2023/03/19 03:58:04;;;;;;;7.13;2.40;;;12.10;99.90;;;;;;5094861;28;20069;-75
2023/03/19 04:00:30;;;;;;;4.82;2.17;;;12.10;99.90;;;;;;5094907;28;20020;-76
2023/03/19 04:02:56;;;;;;;3.95;2.10;;;12.10;99.90;;;;;;5093176;28;20024;-75
2023/03/19 04:05:22;;;;;;;5.22;2.50;;;12.10;99.90;;;;;;5093518;28;20358;-75
2023/03/19 04:07:47;;;;;;;5.55;2.15;;;12.10;99.90;;;;;;5093027;28;20024;-75
2023/03/19 04:10:14;;;;;;;4.95;2.47;;;12.10;99.90;;;;;;5094796;28;20119;-75
2023/03/19 04:12:40;;;;;;;5.72;2.40;;;12.10;99.90;;;;;;5094110;28;20031;-76
2023/03/19 04:15:08;;;;;;;4.57;2.10;;;12.10;99.90;;;;;;5093167;28;20016;-76
2023/03/19 04:17:34;;;;;;;4.28;2.10;;;12.10;99.90;;;;;;5092685;28;20028;-78
2023/03/19 04:20:01;;;;;;;4.40;2.70;;;12.10;99.90;;;;;;5093977;28;20020;-76
2023/03/19 04:22:27;;;;;;;3.42;1.98;;;12.10;99.90;;;;;;5071363;28;20034;-75
2023/03/19 04:24:53;;;;;;;7.97;2.50;;;12.10;99.90;;;;;;5094271;28;20016;-75
2023/03/19 04:27:19;;;;;;;2.65;1.73;;;12.10;99.90;;;;;;5094284;28;20023;-75
2023/03/19 04:29:44;;;;;;;7.45;2.45;;;12.10;99.90;;;;;;5092370;28;20024;-75
2023/03/19 04:32:10;;;;;;;3.33;2.13;;;12.10;99.90;;;;;;5092899;28;20028;-75
2023/03/19 04:34:36;;;;;;;4.22;2.35;;;12.10;99.90;;;;;;5092741;28;20048;-82
2023/03/19 04:37:02;;;;;;;3.25;2.10;;;12.10;99.90;;;;;;5093183;28;20466;-75
2023/03/19 04:39:27;;;;;;;5.65;2.22;;;12.10;99.90;;;;;;5093779;28;20245;-75
2023/03/19 04:41:53;;;;;;;4.93;2.30;;;12.20;99.90;;;;;;5093184;28;20055;-75
2023/03/19 04:44:19;;;;;;;4.53;2.10;;;12.20;99.90;;;;;;5092822;28;20114;-75
2023/03/19 04:46:45;;;;;;;4.10;2.22;;;12.10;99.90;;;;;;5079246;28;20028;-75
2023/03/19 04:49:11;;;;;;;4.53;2.42;;;12.10;99.90;;;;;;5092942;28;20035;-75
2023/03/19 04:51:37;;;;;;;5.97;2.45;;;12.10;99.90;;;;;;5093355;28;20088;-80
2023/03/19 04:54:04;;;;;;;5.63;2.05;;;12.10;99.90;;;;;;5094244;28;20103;-76
2023/03/19 04:56:30;;;;;;;5.03;2.40;;;12.10;99.90;;;;;;5093219;28;20024;-76
2023/03/19 04:58:56;;;;;;;5.60;2.55;;;12.10;99.90;;;;;;5092432;28;20617;-76
2023/03/19 05:01:22;;;;;;;5.43;2.20;;;12.10;99.90;;;;;;5092875;28;20016;-76
2023/03/19 05:03:48;;;;;;;8.35;2.40;;;12.10;99.90;;;;;;5091930;28;20055;-76
2023/03/19 05:06:13;;;;;;;4.97;2.50;;;12.00;99.90;;;;;;5092103;28;20492;-76
2023/03/19 05:08:39;;;;;;;4.13;2.25;;;12.00;99.90;;;;;;5091420;28;20020;-77
2023/03/19 05:11:05;;;;;;;5.18;2.35;;;12.00;99.90;;;;;;5092135;28;20081;-75
2023/03/19 05:13:30;;;;;;;5.88;3.03;;;12.00;99.90;;;;;;5091912;28;20020;-75
2023/03/19 05:15:56;;;;;;;4.72;2.53;;;11.90;99.90;;;;;;5091110;28;20085;-75
2023/03/19 05:18:22;;;;;;;5.13;2.53;;;11.90;99.90;;;;;;5092972;28;20077;-75
2023/03/19 05:20:48;;;;;;;4.85;2.40;;;11.90;99.90;;;;;;5091843;28;20065;-75
2023/03/19 05:23:14;;;;;;;3.65;2.30;;;11.90;99.90;;;;;;5092650;28;20457;-75
2023/03/19 05:25:40;;;;;;;5.78;2.67;;;11.90;99.90;;;;;;5091946;28;20020;-79
2023/03/19 05:28:07;;;;;;;6.38;2.67;;;11.90;99.90;;;;;;5093708;28;20031;-75
2023/03/19 05:30:33;;;;;;;4.40;2.22;;;11.90;99.90;;;;;;5093601;28;20433;-76
2023/03/19 05:32:59;;;;;;;6.40;2.65;;;11.90;99.90;;;;;;5092004;28;20039;-76
2023/03/19 05:35:26;;;;;;;5.07;2.38;;;11.90;99.90;;;;;;5093484;28;20016;-76
2023/03/19 05:37:52;;;;;;;4.07;1.98;;;11.90;99.90;;;;;;5091542;28;20127;-75
2023/03/19 05:40:19;;;;;;;3.97;2.58;;;11.90;99.90;;;;;;5093255;28;20024;-75
2023/03/19 05:42:45;;;;;;;3.88;2.05;;;11.80;99.90;;;;;;5092957;28;20085;-76
2023/03/19 05:45:11;;;;;;;4.95;2.30;;;11.90;99.90;;;;;;5092355;28;20020;-76
2023/03/19 05:47:38;;;;;;;5.97;2.40;;;11.80;99.90;;;;;;5093319;28;20085;-79
2023/03/19 05:50:04;;;;;;;3.35;2.33;;;11.90;99.90;;;;;;5094198;28;20030;-76
2023/03/19 05:52:30;;;;;;;4.57;2.38;;;11.80;99.90;;;;;;5096230;28;20028;-76
2023/03/19 05:54:55;;;;;;;5.05;2.30;;;11.80;99.90;;;;;;5096978;28;20035;-76
2023/03/19 05:57:21;;;;;;;6.03;2.50;;;11.80;99.90;;;;;;5096166;28;20031;-75
2023/03/19 05:59:47;;;;;;;3.45;1.90;;;11.80;99.90;;;;;;5095772;28;20048;-75
2023/03/19 06:02:12;;;;;;;4.00;2.38;;;11.80;99.90;;;;;;5096172;28;20031;-75
2023/03/19 06:04:38;;;;;;;4.68;2.13;;;11.90;99.90;;;;;;5097095;28;20103;-79
2023/03/19 06:07:03;;;;;;;6.65;2.05;;;11.90;99.90;;;;;;5095910;28;20031;-75
2023/03/19 06:09:29;;;;;;;4.90;2.42;;;11.90;99.90;;;;;;5095805;28;20027;-75
2023/03/19 06:11:55;;;;;;;3.78;1.90;;;11.90;99.90;;;;;;5096175;28;20081;-75
2023/03/19 06:14:20;;;;;;;4.03;2.15;;;11.90;99.90;;;;;;5096004;28;20462;-75
2023/03/19 06:16:46;;;;;;;3.90;2.08;;;11.90;99.90;;;;;;5095263;28;20129;-75
2023/03/19 06:19:12;;;;;;;7.50;2.60;;;11.90;99.90;;;;;;5096774;28;20024;-75
2023/03/19 06:21:37;;;;;;;6.78;2.42;;;12.00;99.90;;;;;;5095861;28;20047;-75
2023/03/19 06:24:03;;;;;;;3.53;2.05;;;12.00;99.90;;;;;;5095117;28;20024;-75
2023/03/19 06:26:29;;;;;;;4.82;2.20;;;12.00;99.90;;;;;;5096638;28;20473;-75
2023/03/19 06:28:54;;;;;;;3.92;2.05;;;12.00;99.90;;;;;;5095697;28;20081;-76
2023/03/19 06:31:20;;;;;;;5.97;2.50;;;12.10;99.90;;;;;;5095170;28;20434;-76
2023/03/19 06:33:46;;;;;;;5.57;2.92;;;12.10;99.90;;;;;;5094360;28;20016;-76
2023/03/19 06:36:11;;;;;;;3.15;2.38;;;12.10;99.90;;;;;;5096465;28;20026;-76
2023/03/19 06:38:37;;;;;;;7.05;2.72;;;12.10;99.90;;;;;;5095225;28;20123;-76
2023/03/19 06:41:03;;;;;;;5.15;2.25;;;12.10;99.90;;;;;;5094877;28;20020;-75
2023/03/19 06:43:30;;;;;;;4.82;1.98;;;12.10;99.90;;;;;;5095430;28;20020;-75
2023/03/19 06:45:55;;;;;;;5.90;2.50;;;12.20;99.90;;;;;;5094702;28;20110;-76
2023/03/19 06:48:21;;;;;;;5.35;2.70;;;12.20;99.90;;;;;;5095341;28;20115;-75
2023/03/19 06:50:47;;;;;;;5.90;2.50;;;12.20;99.90;;;;;;5094875;28;20467;-76
2023/03/19 06:53:13;;;;;;;5.10;2.25;;;12.20;99.90;;;;;;5095145;28;20035;-76
2023/03/19 06:55:39;;;;;;;6.38;2.30;;;12.20;99.90;;;;;;5095038;28;20016;-76
2023/03/19 06:58:05;;;;;;;4.10;2.00;;;12.30;99.90;;;;;;5094513;28;20028;-76
2023/03/19 07:00:32;;;;;;;5.30;2.17;;;12.20;99.90;;;;;;5094659;28;20024;-75
2023/03/19 07:02:58;;;;;;;4.82;2.38;;;12.30;99.90;;;;;;5094657;28;20041;-76
2023/03/19 07:05:24;;;;;;;8.05;2.35;;;12.30;99.90;;;;;;5094822;28;20024;-76
2023/03/19 07:07:50;;;;;;;4.78;2.08;;;12.20;99.90;;;;;;5094436;28;20046;-76
2023/03/19 07:10:20;;;;;;;4.07;2.00;;;12.30;99.90;;;;;;5095774;28;20453;-77
2023/03/19 07:12:46;;;;;;;2.88;2.00;;;12.30;99.90;;;;;;5095428;28;20060;-78
2023/03/19 07:15:12;;;;;;;6.55;2.10;;;12.30;99.90;;;;;;5094745;28;20030;-76
2023/03/19 07:17:37;;;;;;;4.22;2.28;;;12.40;99.90;;;;;;5095859;28;20099;-76
2023/03/19 07:20:03;;;;;;;5.32;2.35;;;12.40;99.90;;;;;;5094597;28;20449;-76
2023/03/19 07:22:29;;;;;;;5.70;2.35;;;12.30;99.90;;;;;;5094651;28;20024;-75
2023/03/19 07:24:54;;;;;;;7.03;3.08;;;12.40;99.90;;;;;;5093919;28;20024;-76
2023/03/19 07:27:20;;;;;;;7.28;2.47;;;12.40;99.90;;;;;;5094380;28;20024;-76
2023/03/19 07:29:46;;;;;;;7.47;2.15;;;12.40;99.90;;;;;;5095170;28;20086;-79
2023/03/19 07:32:12;;;;;;;4.90;2.33;;;12.50;99.90;;;;;;5095344;28;20478;-76
2023/03/19 07:34:37;;;;;;;5.40;2.10;;;12.60;99.90;;;;;;5094217;28;20451;-76
2023/03/19 07:37:03;;;;;;;6.05;2.17;;;12.60;99.90;;;;;;5094692;28;20108;-75
2023/03/19 07:39:29;;;;;;;4.25;2.03;;;12.60;99.90;;;;;;5094172;28;20020;-76
2023/03/19 07:41:54;;;;;;;4.43;2.20;;;12.60;99.90;;;;;;5089084;28;20050;-75
2023/03/19 07:44:20;;;;;;;4.05;1.95;;;12.70;99.90;;;;;;5073258;28;20031;-75
2023/03/19 07:46:46;;;;;;;5.85;2.47;;;12.70;99.90;;;;;;5073669;28;20086;-80
2023/03/19 07:49:11;;;;;;;6.25;2.47;;;12.90;99.90;;;;;;5074762;28;20032;-75
2023/03/19 07:51:37;;;;;;;9.35;2.60;;;12.90;99.90;;;;;;5073624;28;20033;-76
2023/03/19 07:54:02;;;;;;;4.65;2.35;;;13.00;99.90;;;;;;5072542;28;20024;-74
2023/03/19 07:56:28;;;;;;;4.28;2.03;;;13.10;99.90;;;;;;5074376;28;20362;-75
2023/03/19 07:58:53;;;;;;;6.15;2.50;;;13.10;99.90;;;;;;5073907;28;20463;-76
2023/03/19 08:01:19;;;;;;;5.75;2.40;;;13.20;99.90;;;;;;5074462;28;20020;-75
2023/03/19 08:03:47;;;;;;;5.13;2.45;;;13.20;99.90;;;;;;5074219;28;20024;-81
2023/03/19 08:06:12;;;;;;;8.40;2.85;;;13.30;99.90;;;;;;5073140;28;20021;-76
2023/03/19 08:08:38;;;;;;;8.13;2.70;;;13.30;99.90;;;;;;5073166;28;20029;-76
2023/03/19 08:11:04;;;;;;;4.32;2.50;;;13.40;99.90;;;;;;5072521;28;20020;-76
2023/03/19 08:13:30;;;;;;;4.35;2.13;;;13.50;99.90;;;;;;5072487;28;20028;-76
2023/03/19 08:15:56;;;;;;;6.22;2.38;;;13.50;99.90;;;;;;5073304;28;20354;-76
2023/03/19 08:18:21;;;;;;;6.25;2.40;;;13.50;99.90;;;;;;5072497;28;20050;-75
2023/03/19 08:20:48;;;;;;;7.07;2.50;;;13.50;99.90;;;;;;5072500;28;20035;-81
2023/03/19 08:23:14;;;;;;;4.35;2.55;;;13.50;99.90;;;;;;5072477;28;20457;-75
2023/03/19 08:25:40;;;;;;;3.22;2.15;;;13.50;99.90;;;;;;5073007;28;20032;-75
2023/03/19 08:28:09;;;;;;;2.88;1.90;;;13.50;99.90;;;;;;5072423;28;20100;-76
2023/03/19 08:30:35;;;;;;;3.70;1.85;;;13.60;99.90;;;;;;5075078;28;20042;-75
2023/03/19 08:33:01;;;;;;;8.35;2.47;;;13.60;99.90;;;;;;5083029;28;20029;-75
2023/03/19 08:35:27;;;;;;;7.28;2.78;;;13.70;99.90;;;;;;5084891;28;20027;-76
2023/03/19 08:37:53;;;;;;;4.00;2.08;;;13.90;99.90;;;;;;5083126;28;20439;-76
2023/03/19 08:40:20;;;;;;;4.43;2.00;;;13.90;99.90;;;;;;5092703;28;20116;-75
2023/03/19 08:42:45;;;;;;;4.40;1.65;;;14.10;99.90;;;;;;5092724;28;20110;-75
2023/03/19 08:45:12;;;;;;;3.42;2.00;;;14.10;99.90;;;;;;5093521;28;20075;-76
2023/03/19 08:47:38;;;;;;;3.65;1.92;;;14.20;99.90;;;;;;5083137;28;20029;-75
2023/03/19 08:50:05;;;;;;;2.80;1.73;;;14.30;99.90;;;;;;5071896;28;20376;-76
2023/03/19 08:52:30;;;;;;;7.15;1.70;;;14.40;99.90;;;;;;5071838;28;20032;-75
2023/03/19 08:54:56;;;;;;;2.95;1.65;;;14.50;99.90;;;;;;5072979;28;20021;-76
2023/03/19 08:57:22;;;;;;;3.25;2.28;;;14.50;99.90;;;;;;5071871;28;20024;-75
2023/03/19 08:59:47;;;;;;;5.95;1.77;;;14.50;99.90;;;;;;5073213;28;20056;-76
2023/03/19 09:02:13;;;;;;;3.72;1.70;;;14.50;99.90;;;;;;5088720;28;20461;-75
2023/03/19 09:04:42;;;;;;;2.47;1.40;;;14.50;99.90;;;;;;5092077;28;20024;-75
2023/03/19 09:07:12;;;;;;;4.13;1.42;;;14.50;99.90;;;;;;5091408;28;20035;-76
2023/03/19 09:09:38;;;;;;;3.17;1.20;;;14.50;99.90;;;;;;5092612;28;20016;-77
2023/03/19 09:12:06;;;;;;;2.53;1.17;;;14.40;99.90;;;;;;5086194;28;20426;-78
2023/03/19 09:14:32;;;;;;;4.30;1.50;;;14.40;99.90;;;;;;5086704;28;20021;-77
2023/03/19 09:16:58;;;;;;;3.58;1.20;;;14.50;99.90;;;;;;5073933;28;20042;-77
2023/03/19 09:19:23;;;;;;;2.90;1.25;;;14.50;99.70;;;;;;5083671;28;20024;-78
2023/03/19 09:21:49;;;;;;;3.92;1.20;;;14.40;99.20;;;;;;5080158;28;20113;-79
2023/03/19 09:24:15;;;;;;;3.35;1.50;;;14.40;99.60;;;;;;5066323;28;20139;-80
2023/03/19 09:26:41;;;;;;;4.65;1.58;;;14.40;99.70;;;;;;5083933;28;20020;-73
2023/03/19 09:29:07;;;;;;;3.22;1.33;;;14.30;99.40;;;;;;5078983;28;20027;-75
2023/03/19 09:31:32;;;;;;;3.00;1.48;;;14.30;99.90;;;;;;5083431;28;20026;-72
2023/03/19 09:33:58;;;;;;;4.18;1.50;;;14.30;99.90;;;;;;5082372;28;20028;-73
2023/03/19 09:36:25;;;;;;;5.03;1.38;;;14.30;99.90;;;;;;5082357;28;20024;-72
2023/03/19 09:38:50;;;;;;;5.00;1.60;;;14.40;99.90;;;;;;5088548;28;20027;-80
2023/03/19 09:41:31;;;;;;;2.88;1.33;;;14.40;99.90;;;;;;5083812;28;20024;-74
2023/03/19 09:44:10;;;;;;;3.70;1.60;;;14.40;99.90;;;;;;5073214;28;20021;-75
2023/03/19 09:46:57;;;;;;;3.00;1.50;;;14.50;99.90;;;;;;5073028;28;20020;-75
2023/03/19 09:49:27;;;;;;;5.55;1.85;;;14.50;99.90;;;;;;5078901;28;20536;-75
2023/03/19 09:51:57;;;;;;;4.78;1.92;;;14.50;99.90;;;;;;5090260;28;20437;-79
2023/03/19 09:54:26;;;;;;;7.07;1.73;;;14.70;99.90;;;;;;5079513;28;20027;-75
2023/03/19 09:56:52;;;;;;;2.83;1.40;;;14.80;99.90;;;;;;5083305;28;20480;-79
2023/03/19 09:59:21;;;;;;;4.25;1.60;;;14.90;99.90;;;;;;5075015;28;20020;-75
2023/03/19 10:02:03;;;;;;;5.00;1.88;;;15.10;99.80;;;;;;5085928;28;20108;-77
2023/03/19 10:04:41;;;;;;;3.60;1.23;;;15.10;99.70;;;;;;5086643;28;20081;-74
2023/03/19 10:07:35;;;;;;;3.35;1.30;;;15.10;99.40;;;;;;5089674;28;20111;-75
2023/03/19 10:10:31;;;;;;;3.80;1.40;;;15.10;99.90;;;;;;5056562;28;20032;-75
2023/03/19 10:13:20;;;;;;;3.72;1.20;;;15.20;98.40;;;;;;5058621;28;20108;-76
2023/03/19 10:15:48;;;;;;;4.22;1.20;;;15.30;99.10;;;;;;5085047;28;20038;-74
2023/03/19 10:18:20;;;;;;;4.22;1.30;;;15.40;97.10;;;;;;5075362;28;20025;-76
2023/03/19 10:21:12;;;;;;;2.40;1.58;;;15.40;96.90;;;;;;5084627;28;20028;-76
2023/03/19 10:23:40;;;;;;;2.60;1.27;;;15.40;96.20;;;;;;5076682;28;20025;-83
2023/03/19 10:26:13;;;;;;;2.88;1.20;;;15.50;96.40;;;;;;5070613;28;20369;-75
2023/03/19 10:28:43;;;;;;;1.85;1.00;;;15.50;96.60;;;;;;5075420;28;20028;-83
2023/03/19 10:31:26;;;;;;;2.65;1.42;;;15.70;96.20;;;;;;5076854;28;20028;-75
2023/03/19 10:33:57;;;;;;;5.00;1.23;;;15.90;95.30;;;;;;5051028;28;20037;-80
2023/03/19 10:36:29;;;;;;;3.17;1.43;;;16.10;94.20;;;;;;5053928;28;20485;-74
2023/03/19 10:38:55;;;;;;;2.20;1.02;;;16.30;94.20;;;;;;5081411;28;20448;-75
2023/03/19 10:41:27;;;;;;;2.53;1.30;;;16.40;94.50;;;;;;5094402;28;20130;-74
2023/03/19 10:43:58;;;;;;;3.13;1.15;;;16.50;93.10;;;;;;5091903;28;20024;-77
2023/03/19 10:46:24;;;;;;;;;;;16.40;93.50;;;;;;5074556;28;20031;-75
2023/03/19 10:48:49;;;;;;;2.47;1.05;;;16.50;92.70;;;;;;5074992;28;20264;-78
2023/03/19 10:51:25;;;;;;;2.35;1.27;;;16.50;93.00;;;;;;5092222;28;20383;-74
2023/03/19 10:53:54;;;;;;;2.83;1.30;;;16.60;92.60;;;;;;5081953;28;20104;-80
2023/03/19 10:56:29;;;;;;;3.95;1.30;;;16.70;91.60;;;;;;5091883;28;20024;-74
2023/03/19 10:59:05;;;;;;;2.53;1.00;;;16.70;91.50;;;;;;5084497;28;20035;-75
2023/03/19 11:01:33;;;;;;;3.10;1.10;;;16.70;91.90;;;;;;5089335;28;20042;-75
2023/03/19 11:04:01;;;;;;;3.53;1.17;;;16.80;91.40;;;;;;5081644;28;20108;-75
2023/03/19 11:06:32;;;;;;;2.40;1.13;;;16.80;90.70;;;;;;5087397;28;20022;-76
2023/03/19 11:09:07;;;;;;;3.15;1.17;;;16.70;90.90;;;;;;5072242;28;20039;-75
2023/03/19 11:11:42;;;;;;;2.60;1.20;;;16.50;90.30;;;;;;5088867;28;20024;-77
2023/03/19 11:14:15;;;;;;;1.88;1.08;;;16.40;89.80;;;;;;5084843;28;20365;-75
2023/03/19 11:16:55;;;;;;;1.95;0.98;;;16.30;90.40;;;;;;5077686;28;20017;-75
2023/03/19 11:19:25;;;;;;;1.98;0.98;;;16.30;90.60;;;;;;5076780;28;20021;-75
2023/03/19 11:22:16;;;;;;;2.10;1.30;;;16.30;90.40;;;;;;5085269;28;20035;-82
2023/03/19 11:24:52;;;;;;;1.98;1.27;;;16.50;90.30;;;;;;5074753;28;20372;-75
2023/03/19 11:27:25;;;;;;;5.05;1.50;;;16.60;90.70;;;;;;5090853;28;20048;-74
2023/03/19 11:29:50;;;;;;;2.70;1.42;;;16.70;91.00;;;;;;5078537;28;20025;-80
2023/03/19 11:32:41;;;;;;;3.80;1.60;;;16.70;90.80;;;;;;5088376;28;20035;-75
2023/03/19 11:35:16;;;;;;;4.22;1.38;;;16.70;90.90;;;;;;5081937;28;20056;-75
2023/03/19 11:37:59;;;;;;;2.25;1.20;;;16.70;91.60;;;;;;5084077;28;20050;-75
2023/03/19 11:40:51;;;;;;;3.85;1.75;;;16.70;91.30;;;;;;5081050;28;20137;-75
2023/03/19 11:43:32;;;;;;;3.83;1.80;;;16.60;91.20;;;;;;5081687;28;20032;-75
2023/03/19 11:46:32;;;;;;;3.60;1.20;;;16.60;91.40;;;;;;5085908;28;20016;-75
2023/03/19 11:49:15;;;;;;;2.67;1.52;;;16.80;91.20;;;;;;5045382;28;20033;-75
2023/03/19 11:51:49;;;;;;;3.60;1.27;;;16.80;92.40;;;;;;5073168;28;20043;-76
2023/03/19 11:54:25;;;;;;;2.75;1.20;;;17.00;91.40;;;;;;5078680;28;20131;-75
2023/03/19 11:57:02;;;;;;;4.53;1.40;;;17.10;91.10;;;;;;5093107;28;20541;-75
2023/03/19 11:59:53;;;;;;;4.85;1.60;;;17.20;90.90;;;;;;5084742;28;20021;-75
2023/03/19 12:02:21;;;;;;;2.80;1.38;;;17.30;90.70;;;;;;5088580;28;20032;-74
2023/03/19 12:05:16;;;;;;;3.83;1.13;;;17.30;90.90;;;;;;5081054;28;20095;-75
2023/03/19 12:08:03;;;;;;;4.20;1.20;;;17.30;90.80;;;;;;5066681;28;20046;-77
2023/03/19 12:10:39;;;;;;;3.20;1.30;;;17.00;90.90;;;;;;5073159;28;20051;-75
2023/03/19 12:13:28;;;;;;;2.92;1.23;;;16.80;91.10;;;;;;5079038;28;20483;-76
2023/03/19 12:16:20;;;;;;;1.75;1.10;;;16.70;91.00;;;;;;5077566;28;20024;-81
2023/03/19 12:19:10;;;;;;;2.60;1.00;;;16.60;91.20;;;;;;5105690;27;20044;-75
2023/03/19 12:21:57;;;;;;;2.83;0.93;;;16.60;91.40;;;;;;5053869;28;20021;-76
2023/03/19 12:24:42;;;;;;;2.78;1.20;;;16.60;91.20;;;;;;5086318;28;20429;-76
2023/03/19 12:27:43;;;;;;;2.78;1.23;;;16.70;91.00;;;;;;5086402;28;20020;-76
2023/03/19 12:30:28;;;;;;;2.35;1.50;;;16.80;91.60;;;;;;5070187;28;20167;-76
2023/03/19 12:33:18;;;;;;;6.03;1.65;;;16.80;92.00;;;;;;5072492;28;20064;-82
2023/03/19 12:35:48;;;;;;;3.92;1.65;;;16.80;91.90;;;;;;5083510;28;20526;-78
2023/03/19 12:38:36;;;;;;;3.40;1.33;;;16.70;91.80;;;;;;5079328;28;20037;-76
2023/03/19 12:41:09;;;;;;;5.60;2.10;;;16.60;92.90;;;;;;5053112;28;20023;-76
2023/03/19 12:44:02;;;;;;;3.15;1.30;;;16.50;93.10;;;;;;5090354;28;20016;-76
2023/03/19 12:46:40;;;;;;;2.85;1.10;;;16.40;92.60;;;;;;5082206;28;20127;-77
2023/03/19 12:49:21;;;;;;;4.35;1.48;;;16.40;92.60;;;;;;5079677;28;20032;-76
2023/03/19 12:52:01;;;;;;;2.88;1.33;;;16.40;92.60;;;;;;5079053;28;20030;-76
2023/03/19 12:54:33;;;;;;;2.20;1.50;;;16.30;91.90;;;;;;5084173;28;20062;-76
2023/03/19 12:57:01;;;;;;;3.22;1.13;;;16.20;91.00;;;;;;5085811;28;20439;-75
2023/03/19 13:00:00;;;;;;;3.38;1.13;;;16.30;91.00;;;;;;5089864;28;20020;-75